sensor_id;sensor_type;location;lat;lon;timestamp;pressure;altitude;pressure_sealevel;temperature;humidity
74542;BME280;63015;45.378;20.360;2023-04-01T00:01:52;99517.94;;;13.43;64.47
74542;BME280;63015;45.378;20.360;2023-04-01T00:03:52;99513.53;;;13.45;64.01
74542;BME280;63015;45.378;20.360;2023-04-01T00:05:55;99516.06;;;13.48;63.68
74542;BME280;63015;45.378;20.360;2023-04-01T00:07:55;99508.13;;;13.51;63.91
74542;BME280;63015;45.378;20.360;2023-04-01T00:09:56;99506.75;;;13.36;64.55
74542;BME280;63015;45.378;20.360;2023-04-01T00:11:56;99516.22;;;13.42;64.05
74542;BME280;63015;45.378;20.360;2023-04-01T00:13:57;99520.44;;;13.47;63.70
74542;BME280;63015;45.378;20.360;2023-04-01T00:15:57;99509.84;;;13.52;63.48
74542;BME280;63015;45.378;20.360;2023-04-01T00:17:58;99515.94;;;13.53;63.48
74542;BME280;63015;45.378;20.360;2023-04-01T00:19:59;99510.56;;;13.57;63.13
74542;BME280;63015;45.378;20.360;2023-04-01T00:22:00;99502.06;;;13.49;63.70
74542;BME280;63015;45.378;20.360;2023-04-01T00:24:01;99502.16;;;13.46;63.85
74542;BME280;63015;45.378;20.360;2023-04-01T00:26:02;99502.91;;;13.49;63.32
74542;BME280;63015;45.378;20.360;2023-04-01T00:28:02;99500.25;;;13.53;63.17
74542;BME280;63015;45.378;20.360;2023-04-01T00:30:03;99496.63;;;13.57;62.94
74542;BME280;63015;45.378;20.360;2023-04-01T00:32:04;99499.16;;;13.60;62.77
74542;BME280;63015;45.378;20.360;2023-04-01T00:34:05;99501.69;;;13.63;62.63
74542;BME280;63015;45.378;20.360;2023-04-01T00:36:14;99505.09;;;13.67;62.67
74542;BME280;63015;45.378;20.360;2023-04-01T00:38:16;99501.59;;;13.66;62.45
74542;BME280;63015;45.378;20.360;2023-04-01T00:40:44;99499.03;;;13.64;62.58
74542;BME280;63015;45.378;20.360;2023-04-01T00:42:45;99496.34;;;13.66;62.44
74542;BME280;63015;45.378;20.360;2023-04-01T00:44:49;99504.16;;;13.68;62.46
74542;BME280;63015;45.378;20.360;2023-04-01T00:46:50;99508.59;;;13.65;62.36
74542;BME280;63015;45.378;20.360;2023-04-01T00:48:54;99502.47;;;13.67;62.41
74542;BME280;63015;45.378;20.360;2023-04-01T00:51:11;99502.50;;;13.65;62.39
74542;BME280;63015;45.378;20.360;2023-04-01T00:53:13;99499.03;;;13.64;62.30
74542;BME280;63015;45.378;20.360;2023-04-01T00:55:16;99493.91;;;13.61;62.58
74542;BME280;63015;45.378;20.360;2023-04-01T00:57:23;99490.50;;;13.58;62.85
74542;BME280;63015;45.378;20.360;2023-04-01T00:59:31;99497.47;;;13.57;62.86
74542;BME280;63015;45.378;20.360;2023-04-01T01:01:35;99489.72;;;13.54;62.96
74542;BME280;63015;45.378;20.360;2023-04-01T01:03:36;99491.56;;;13.51;63.11
74542;BME280;63015;45.378;20.360;2023-04-01T01:10:30;99502.16;;;13.46;63.23
74542;BME280;63015;45.378;20.360;2023-04-01T01:15:21;99506.66;;;13.41;64.11
74542;BME280;63015;45.378;20.360;2023-04-01T01:19:52;99498.03;;;13.37;63.74
74542;BME280;63015;45.378;20.360;2023-04-01T01:22:19;99496.38;;;13.33;64.45
74542;BME280;63015;45.378;20.360;2023-04-01T01:24:30;99488.47;;;13.35;63.82
74542;BME280;63015;45.378;20.360;2023-04-01T01:26:56;99497.22;;;13.33;64.18
74542;BME280;63015;45.378;20.360;2023-04-01T01:35:39;99486.22;;;13.21;64.94
74542;BME280;63015;45.378;20.360;2023-04-01T01:37:52;99483.81;;;13.13;65.46
74542;BME280;63015;45.378;20.360;2023-04-01T01:39:59;99492.47;;;13.15;65.39
74542;BME280;63015;45.378;20.360;2023-04-01T01:42:06;99483.13;;;13.06;66.02
74542;BME280;63015;45.378;20.360;2023-04-01T01:44:11;99487.44;;;13.07;65.99
74542;BME280;63015;45.378;20.360;2023-04-01T01:46:15;99498.78;;;13.08;66.10
74542;BME280;63015;45.378;20.360;2023-04-01T01:48:17;99500.50;;;13.07;66.16
74542;BME280;63015;45.378;20.360;2023-04-01T01:50:21;99492.72;;;13.06;66.38
74542;BME280;63015;45.378;20.360;2023-04-01T01:52:23;99490.63;;;12.86;68.25
74542;BME280;63015;45.378;20.360;2023-04-01T01:54:24;99479.88;;;12.96;66.53
74542;BME280;63015;45.378;20.360;2023-04-01T01:56:27;99487.13;;;12.85;67.61
74542;BME280;63015;45.378;20.360;2023-04-01T01:58:34;99484.56;;;12.83;67.70
74542;BME280;63015;45.378;20.360;2023-04-01T02:00:46;99486.59;;;12.72;68.71
74542;BME280;63015;45.378;20.360;2023-04-01T02:02:49;99482.41;;;12.65;68.69
74542;BME280;63015;45.378;20.360;2023-04-01T02:04:51;99493.03;;;12.59;69.49
74542;BME280;63015;45.378;20.360;2023-04-01T02:07:04;99480.63;;;12.67;68.99
74542;BME280;63015;45.378;20.360;2023-04-01T02:09:08;99476.19;;;12.71;68.71
74542;BME280;63015;45.378;20.360;2023-04-01T02:11:16;99477.84;;;12.73;68.35
74542;BME280;63015;45.378;20.360;2023-04-01T02:13:32;99479.88;;;12.62;69.69
74542;BME280;63015;45.378;20.360;2023-04-01T02:15:37;99475.75;;;12.52;70.35
74542;BME280;63015;45.378;20.360;2023-04-01T02:17:43;99484.47;;;12.52;69.85
74542;BME280;63015;45.378;20.360;2023-04-01T02:19:56;99493.25;;;12.49;69.97
74542;BME280;63015;45.378;20.360;2023-04-01T02:22:01;99490.63;;;12.49;70.26
74542;BME280;63015;45.378;20.360;2023-04-01T02:24:06;99492.38;;;12.49;70.24
74542;BME280;63015;45.378;20.360;2023-04-01T02:26:10;99497.69;;;12.46;70.79
74542;BME280;63015;45.378;20.360;2023-04-01T02:28:11;99494.41;;;12.36;72.05
74542;BME280;63015;45.378;20.360;2023-04-01T02:30:16;99499.69;;;12.34;71.36
74542;BME280;63015;45.378;20.360;2023-04-01T02:32:18;99501.53;;;12.29;71.88
74542;BME280;63015;45.378;20.360;2023-04-01T02:34:21;99504.28;;;12.23;72.52
74542;BME280;63015;45.378;20.360;2023-04-01T02:36:23;99509.66;;;12.15;73.60
74542;BME280;63015;45.378;20.360;2023-04-01T02:38:23;99506.97;;;12.20;72.64
74542;BME280;63015;45.378;20.360;2023-04-01T02:40:24;99503.53;;;12.18;72.76
74542;BME280;63015;45.378;20.360;2023-04-01T02:42:25;99506.13;;;12.18;72.73
74542;BME280;63015;45.378;20.360;2023-04-01T02:44:26;99501.63;;;12.26;72.28
74542;BME280;63015;45.378;20.360;2023-04-01T02:46:26;99509.72;;;12.14;73.25
74542;BME280;63015;45.378;20.360;2023-04-01T02:48:27;99514.13;;;12.10;73.52
74542;BME280;63015;45.378;20.360;2023-04-01T02:50:27;99520.13;;;12.15;73.14
74542;BME280;63015;45.378;20.360;2023-04-01T02:52:29;99517.47;;;12.17;72.98
74542;BME280;63015;45.378;20.360;2023-04-01T02:54:32;99516.53;;;12.20;73.03
74542;BME280;63015;45.378;20.360;2023-04-01T02:56:32;99518.34;;;12.17;73.23
74542;BME280;63015;45.378;20.360;2023-04-01T02:58:33;99507.00;;;12.19;72.86
74542;BME280;63015;45.378;20.360;2023-04-01T03:00:33;99515.53;;;12.27;72.14
74542;BME280;63015;45.378;20.360;2023-04-01T03:02:34;99508.63;;;12.24;72.78
74542;BME280;63015;45.378;20.360;2023-04-01T03:04:35;99512.44;;;12.08;74.16
74542;BME280;63015;45.378;20.360;2023-04-01T03:06:36;99502.84;;;12.10;74.25
74542;BME280;63015;45.378;20.360;2023-04-01T03:08:36;99494.13;;;12.09;74.21
74542;BME280;63015;45.378;20.360;2023-04-01T03:10:37;99491.81;;;11.94;75.57
74542;BME280;63015;45.378;20.360;2023-04-01T03:12:38;99485.97;;;11.84;76.29
74542;BME280;63015;45.378;20.360;2023-04-01T03:14:39;99486.75;;;11.86;75.69
74542;BME280;63015;45.378;20.360;2023-04-01T03:16:39;99480.56;;;11.92;75.49
74542;BME280;63015;45.378;20.360;2023-04-01T03:18:40;99484.06;;;11.91;75.99
74542;BME280;63015;45.378;20.360;2023-04-01T03:20:40;99482.72;;;11.73;76.87
74542;BME280;63015;45.378;20.360;2023-04-01T03:22:41;99474.84;;;11.74;76.51
74542;BME280;63015;45.378;20.360;2023-04-01T03:24:42;99477.19;;;11.87;75.96
74542;BME280;63015;45.378;20.360;2023-04-01T03:26:42;99476.41;;;11.83;76.89
74542;BME280;63015;45.378;20.360;2023-04-01T03:28:43;99466.63;;;11.91;75.17
74542;BME280;63015;45.378;20.360;2023-04-01T03:30:44;99470.94;;;11.94;75.34
74542;BME280;63015;45.378;20.360;2023-04-01T03:32:46;99474.38;;;11.97;75.26
74542;BME280;63015;45.378;20.360;2023-04-01T03:34:46;99468.19;;;12.03;74.15
74542;BME280;63015;45.378;20.360;2023-04-01T03:36:47;99455.25;;;11.97;74.84
74542;BME280;63015;45.378;20.360;2023-04-01T03:38:47;99450.97;;;11.91;75.21
74542;BME280;63015;45.378;20.360;2023-04-01T03:40:53;99448.22;;;12.00;74.14
74542;BME280;63015;45.378;20.360;2023-04-01T03:42:54;99443.88;;;11.99;75.00
74542;BME280;63015;45.378;20.360;2023-04-01T03:44:56;99443.75;;;12.06;73.75
74542;BME280;63015;45.378;20.360;2023-04-01T03:46:56;99448.06;;;12.07;74.08
74542;BME280;63015;45.378;20.360;2023-04-01T03:48:57;99446.38;;;12.04;74.09
74542;BME280;63015;45.378;20.360;2023-04-01T03:50:57;99448.94;;;12.07;73.95
74542;BME280;63015;45.378;20.360;2023-04-01T03:52:58;99457.63;;;12.08;73.75
74542;BME280;63015;45.378;20.360;2023-04-01T03:54:59;99466.47;;;12.02;74.37
74542;BME280;63015;45.378;20.360;2023-04-01T03:57:00;99473.28;;;12.08;73.71
74542;BME280;63015;45.378;20.360;2023-04-01T03:59:05;99471.56;;;12.08;73.72
74542;BME280;63015;45.378;20.360;2023-04-01T04:01:32;99472.41;;;12.09;73.49
74542;BME280;63015;45.378;20.360;2023-04-01T04:03:33;99461.06;;;12.10;73.25
74542;BME280;63015;45.378;20.360;2023-04-01T04:05:35;99457.63;;;12.08;73.39
74542;BME280;63015;45.378;20.360;2023-04-01T04:07:36;99454.03;;;12.12;73.14
74542;BME280;63015;45.378;20.360;2023-04-01T04:09:39;99454.03;;;12.13;72.84
74542;BME280;63015;45.378;20.360;2023-04-01T04:11:40;99453.09;;;12.14;72.75
74542;BME280;63015;45.378;20.360;2023-04-01T04:13:41;99447.88;;;12.16;72.75
74542;BME280;63015;45.378;20.360;2023-04-01T04:15:42;99449.56;;;12.19;72.64
74542;BME280;63015;45.378;20.360;2023-04-01T04:17:46;99453.91;;;12.18;72.84
74542;BME280;63015;45.378;20.360;2023-04-01T04:19:48;99450.44;;;12.17;72.67
74542;BME280;63015;45.378;20.360;2023-04-01T04:21:50;99456.56;;;12.16;73.15
74542;BME280;63015;45.378;20.360;2023-04-01T04:23:51;99450.50;;;12.14;72.89
74542;BME280;63015;45.378;20.360;2023-04-01T04:26:00;99455.72;;;12.16;72.91
74542;BME280;63015;45.378;20.360;2023-04-01T04:28:03;99450.53;;;12.13;72.80
74542;BME280;63015;45.378;20.360;2023-04-01T04:30:05;99460.09;;;12.14;72.88
74542;BME280;63015;45.378;20.360;2023-04-01T04:32:06;99464.44;;;12.15;72.79
74542;BME280;63015;45.378;20.360;2023-04-01T04:34:07;99463.53;;;12.16;72.71
74542;BME280;63015;45.378;20.360;2023-04-01T04:36:09;99465.34;;;12.12;73.05
74542;BME280;63015;45.378;20.360;2023-04-01T04:38:10;99454.91;;;12.12;72.86
74542;BME280;63015;45.378;20.360;2023-04-01T04:40:11;99468.03;;;12.09;73.13
74542;BME280;63015;45.378;20.360;2023-04-01T04:42:12;99473.25;;;12.09;72.72
74542;BME280;63015;45.378;20.360;2023-04-01T04:44:12;99469.81;;;12.07;73.06
74542;BME280;63015;45.378;20.360;2023-04-01T04:46:13;99476.94;;;12.00;73.68
74542;BME280;63015;45.378;20.360;2023-04-01T04:48:15;99473.38;;;12.05;73.08
74542;BME280;63015;45.378;20.360;2023-04-01T04:50:19;99458.50;;;12.07;72.94
74542;BME280;63015;45.378;20.360;2023-04-01T04:52:20;99454.97;;;12.09;72.70
74542;BME280;63015;45.378;20.360;2023-04-01T04:54:21;99452.31;;;12.12;72.72
74542;BME280;63015;45.378;20.360;2023-04-01T04:56:30;99441.84;;;12.12;72.85
74542;BME280;63015;45.378;20.360;2023-04-01T04:58:38;99437.53;;;12.11;72.78
74542;BME280;63015;45.378;20.360;2023-04-01T05:00:40;99432.34;;;12.10;72.88
74542;BME280;63015;45.378;20.360;2023-04-01T05:02:44;99430.69;;;12.06;73.05
74542;BME280;63015;45.378;20.360;2023-04-01T05:04:45;99423.75;;;12.05;73.03
74542;BME280;63015;45.378;20.360;2023-04-01T05:06:45;99421.97;;;12.05;72.76
74542;BME280;63015;45.378;20.360;2023-04-01T05:08:46;99423.66;;;12.08;72.80
74542;BME280;63015;45.378;20.360;2023-04-01T05:10:47;99422.78;;;12.09;72.78
74542;BME280;63015;45.378;20.360;2023-04-01T05:12:47;99413.16;;;12.11;72.85
74542;BME280;63015;45.378;20.360;2023-04-01T05:14:52;99414.91;;;12.10;72.63
74542;BME280;63015;45.378;20.360;2023-04-01T05:16:52;99412.28;;;12.10;72.63
74542;BME280;63015;45.378;20.360;2023-04-01T05:18:54;99407.00;;;12.13;72.63
74542;BME280;63015;45.378;20.360;2023-04-01T05:20:54;99408.69;;;12.16;72.61
74542;BME280;63015;45.378;20.360;2023-04-01T05:22:57;99409.50;;;12.18;72.46
74542;BME280;63015;45.378;20.360;2023-04-01T05:24:57;99403.38;;;12.19;72.22
74542;BME280;63015;45.378;20.360;2023-04-01T05:26:58;99400.84;;;12.16;72.22
74542;BME280;63015;45.378;20.360;2023-04-01T05:29:00;99401.81;;;12.12;72.53
74542;BME280;63015;45.378;20.360;2023-04-01T05:31:02;99398.38;;;12.10;72.75
74542;BME280;63015;45.378;20.360;2023-04-01T05:33:09;99385.50;;;12.02;73.42
74542;BME280;63015;45.378;20.360;2023-04-01T05:35:11;99396.00;;;12.00;73.40
74542;BME280;63015;45.378;20.360;2023-04-01T05:37:11;99390.78;;;11.99;73.37
74542;BME280;63015;45.378;20.360;2023-04-01T05:39:12;99393.38;;;12.00;72.90
74542;BME280;63015;45.378;20.360;2023-04-01T05:41:14;99386.44;;;11.99;73.57
74542;BME280;63015;45.378;20.360;2023-04-01T05:43:18;99385.56;;;11.99;73.55
74542;BME280;63015;45.378;20.360;2023-04-01T05:45:21;99382.16;;;11.97;73.49
74542;BME280;63015;45.378;20.360;2023-04-01T05:47:41;99384.81;;;11.92;73.54
74542;BME280;63015;45.378;20.360;2023-04-01T05:49:42;99381.41;;;11.89;73.57
74542;BME280;63015;45.378;20.360;2023-04-01T05:51:43;99384.19;;;11.82;74.13
74542;BME280;63015;45.378;20.360;2023-04-01T05:53:43;99375.56;;;11.79;74.30
74542;BME280;63015;45.378;20.360;2023-04-01T05:55:44;99383.44;;;11.76;75.04
74542;BME280;63015;45.378;20.360;2023-04-01T05:57:45;99374.72;;;11.77;74.79
74542;BME280;63015;45.378;20.360;2023-04-01T05:59:46;99367.69;;;11.80;74.46
74542;BME280;63015;45.378;20.360;2023-04-01T06:01:47;99372.88;;;11.82;74.70
74542;BME280;63015;45.378;20.360;2023-04-01T06:03:48;99358.91;;;11.84;74.49
74542;BME280;63015;45.378;20.360;2023-04-01T06:05:49;99357.03;;;11.90;74.09
74542;BME280;63015;45.378;20.360;2023-04-01T06:07:55;99348.31;;;11.91;74.56
74542;BME280;63015;45.378;20.360;2023-04-01T06:09:56;99340.38;;;11.97;74.09
74542;BME280;63015;45.378;20.360;2023-04-01T06:17:08;99338.47;;;12.04;74.75
74542;BME280;63015;45.378;20.360;2023-04-01T06:21:37;99326.72;;;12.22;73.90
74542;BME280;63015;45.378;20.360;2023-04-01T06:24:02;99325.97;;;12.16;73.74
74542;BME280;63015;45.378;20.360;2023-04-01T06:26:36;99327.28;;;11.98;74.28
74542;BME280;63015;45.378;20.360;2023-04-01T06:33:36;99315.53;;;11.79;74.88
74542;BME280;63015;45.378;20.360;2023-04-01T06:38:17;99308.50;;;11.81;75.00
74542;BME280;63015;45.378;20.360;2023-04-01T06:43:01;99302.44;;;11.80;74.58
74542;BME280;63015;45.378;20.360;2023-04-01T06:45:39;99315.63;;;11.74;75.54
74542;BME280;63015;45.378;20.360;2023-04-01T06:50:58;99321.78;;;11.72;74.87
74542;BME280;63015;45.378;20.360;2023-04-01T06:53:33;99315.19;;;11.57;75.63
74542;BME280;63015;45.378;20.360;2023-04-01T06:56:08;99315.19;;;11.55;75.84
74542;BME280;63015;45.378;20.360;2023-04-01T06:58:19;99299.53;;;11.57;75.50
74542;BME280;63015;45.378;20.360;2023-04-01T07:00:31;99317.78;;;11.55;75.68
74542;BME280;63015;45.378;20.360;2023-04-01T07:02:39;99322.88;;;11.61;75.52
74542;BME280;63015;45.378;20.360;2023-04-01T07:04:44;99327.19;;;11.64;75.08
74542;BME280;63015;45.378;20.360;2023-04-01T07:06:54;99334.25;;;11.59;74.69
74542;BME280;63015;45.378;20.360;2023-04-01T07:08:59;99335.88;;;11.64;74.62
74542;BME280;63015;45.378;20.360;2023-04-01T07:11:09;99348.34;;;11.51;75.45
74542;BME280;63015;45.378;20.360;2023-04-01T07:13:21;99346.88;;;11.38;75.16
74542;BME280;63015;45.378;20.360;2023-04-01T07:18:21;99354.19;;;11.61;74.85
74542;BME280;63015;45.378;20.360;2023-04-01T07:20:26;99353.94;;;11.74;74.05
74542;BME280;63015;45.378;20.360;2023-04-01T07:24:48;99356.88;;;11.97;73.46
74542;BME280;63015;45.378;20.360;2023-04-01T07:26:54;99373.25;;;12.04;73.48
74542;BME280;63015;45.378;20.360;2023-04-01T07:28:58;99374.00;;;12.11;73.60
74542;BME280;63015;45.378;20.360;2023-04-01T07:33:58;99374.94;;;12.08;73.84
74542;BME280;63015;45.378;20.360;2023-04-01T07:48:18;99346.69;;;11.87;76.07
74542;BME280;63015;45.378;20.360;2023-04-01T07:50:27;99346.69;;;11.87;77.11
74542;BME280;63015;45.378;20.360;2023-04-01T07:52:32;99340.63;;;11.84;77.07
74542;BME280;63015;45.378;20.360;2023-04-01T07:54:55;99348.22;;;11.97;76.83
74542;BME280;63015;45.378;20.360;2023-04-01T07:57:06;99356.00;;;11.98;76.85
74542;BME280;63015;45.378;20.360;2023-04-01T08:09:28;99371.81;;;11.91;77.26
74542;BME280;63015;45.378;20.360;2023-04-01T08:12:20;99374.44;;;11.51;77.86
74542;BME280;63015;45.378;20.360;2023-04-01T08:17:49;99379.56;;;11.55;78.21
74542;BME280;63015;45.378;20.360;2023-04-01T08:20:04;99376.28;;;11.46;78.80
74542;BME280;63015;45.378;20.360;2023-04-01T08:22:13;99377.50;;;11.30;79.01
74542;BME280;63015;45.378;20.360;2023-04-01T08:24:29;99374.56;;;11.45;78.11
74542;BME280;63015;45.378;20.360;2023-04-01T08:26:44;99370.53;;;11.29;78.26
74542;BME280;63015;45.378;20.360;2023-04-01T08:29:21;99374.44;;;11.50;77.44
74542;BME280;63015;45.378;20.360;2023-04-01T08:31:26;99381.50;;;11.46;77.66
74542;BME280;63015;45.378;20.360;2023-04-01T08:33:31;99390.97;;;11.50;77.15
74542;BME280;63015;45.378;20.360;2023-04-01T08:37:53;99392.88;;;11.42;77.42
74542;BME280;63015;45.378;20.360;2023-04-01T08:40:21;99392.06;;;11.40;78.13
74542;BME280;63015;45.378;20.360;2023-04-01T08:55:38;99395.91;;;11.64;78.15
74542;BME280;63015;45.378;20.360;2023-04-01T09:01:02;99400.56;;;11.48;78.58
74542;BME280;63015;45.378;20.360;2023-04-01T09:03:19;99399.69;;;11.49;78.58
74542;BME280;63015;45.378;20.360;2023-04-01T09:07:47;99407.94;;;11.28;80.07
74542;BME280;63015;45.378;20.360;2023-04-01T09:17:30;99416.59;;;11.30;79.11
74542;BME280;63015;45.378;20.360;2023-04-01T09:31:15;99420.06;;;11.30;78.22
74542;BME280;63015;45.378;20.360;2023-04-01T09:34:09;99418.94;;;10.98;78.78
74542;BME280;63015;45.378;20.360;2023-04-01T09:36:43;99417.38;;;10.90;79.31
74542;BME280;63015;45.378;20.360;2023-04-01T09:38:57;99406.84;;;10.94;79.22
74542;BME280;63015;45.378;20.360;2023-04-01T09:44:05;99407.09;;;10.82;80.51
74542;BME280;63015;45.378;20.360;2023-04-01T09:53:36;99405.41;;;10.79;80.91
74542;BME280;63015;45.378;20.360;2023-04-01T09:56:50;99406.81;;;10.96;80.26
74542;BME280;63015;45.378;20.360;2023-04-01T10:18:07;99399.63;;;11.09;79.30
74542;BME280;63015;45.378;20.360;2023-04-01T10:34:46;99401.25;;;11.58;77.90
74542;BME280;63015;45.378;20.360;2023-04-01T10:53:46;99393.47;;;11.57;77.85
74542;BME280;63015;45.378;20.360;2023-04-01T10:56:38;99384.41;;;11.72;77.39
74542;BME280;63015;45.378;20.360;2023-04-01T11:10:06;99389.41;;;11.42;78.44
74542;BME280;63015;45.378;20.360;2023-04-01T11:33:25;99391.16;;;11.41;78.33
74542;BME280;63015;45.378;20.360;2023-04-01T11:43:06;99399.81;;;11.43;78.43
74542;BME280;63015;45.378;20.360;2023-04-01T11:53:12;99419.72;;;11.49;77.53
74542;BME280;63015;45.378;20.360;2023-04-01T12:04:52;99424.28;;;11.38;78.75
74542;BME280;63015;45.378;20.360;2023-04-01T12:07:08;99422.13;;;11.58;78.31
74542;BME280;63015;45.378;20.360;2023-04-01T12:09:25;99423.88;;;11.56;78.42
74542;BME280;63015;45.378;20.360;2023-04-01T12:18:42;99434.38;;;11.55;79.57
74542;BME280;63015;45.378;20.360;2023-04-01T12:38:04;99458.78;;;11.52;79.61
74542;BME280;63015;45.378;20.360;2023-04-01T12:47:56;99462.06;;;11.16;81.31
74542;BME280;63015;45.378;20.360;2023-04-01T12:50:19;99476.28;;;10.98;81.71
74542;BME280;63015;45.378;20.360;2023-04-01T12:55:05;99472.13;;;10.90;82.52
74542;BME280;63015;45.378;20.360;2023-04-01T13:07:09;99496.59;;;10.81;82.51
74542;BME280;63015;45.378;20.360;2023-04-01T13:15:46;99508.09;;;10.66;83.66
74542;BME280;63015;45.378;20.360;2023-04-01T13:18:07;99515.94;;;10.64;83.54
74542;BME280;63015;45.378;20.360;2023-04-01T13:20:21;99519.22;;;10.77;83.04
74542;BME280;63015;45.378;20.360;2023-04-01T13:27:06;99521.78;;;10.80;82.86
74542;BME280;63015;45.378;20.360;2023-04-01T13:31:59;99521.72;;;10.83;83.24
74542;BME280;63015;45.378;20.360;2023-04-01T13:38:45;99528.69;;;10.84;83.79
74542;BME280;63015;45.378;20.360;2023-04-01T13:40:53;99525.16;;;10.87;83.67
74542;BME280;63015;45.378;20.360;2023-04-01T13:43:04;99526.88;;;10.86;83.71
74542;BME280;63015;45.378;20.360;2023-04-01T13:45:25;99530.19;;;10.98;83.51
74542;BME280;63015;45.378;20.360;2023-04-01T13:57:57;99536.03;;;11.11;83.68
74542;BME280;63015;45.378;20.360;2023-04-01T14:04:50;99531.81;;;11.03;83.57
74542;BME280;63015;45.378;20.360;2023-04-01T14:14:35;99538.41;;;11.25;82.75
74542;BME280;63015;45.378;20.360;2023-04-01T14:23:50;99536.63;;;11.27;82.93
74542;BME280;63015;45.378;20.360;2023-04-01T14:28:15;99538.44;;;11.22;82.71
74542;BME280;63015;45.378;20.360;2023-04-01T14:32:34;99536.66;;;11.25;83.01
74542;BME280;63015;45.378;20.360;2023-04-01T14:39:19;99534.84;;;11.29;82.55
74542;BME280;63015;45.378;20.360;2023-04-01T14:46:34;99525.38;;;11.25;82.22
74542;BME280;63015;45.378;20.360;2023-04-01T14:48:57;99528.63;;;11.38;82.21
74542;BME280;63015;45.378;20.360;2023-04-01T14:55:34;99532.00;;;11.43;82.11
74542;BME280;63015;45.378;20.360;2023-04-01T14:57:41;99524.06;;;11.47;82.12
74542;BME280;63015;45.378;20.360;2023-04-01T14:59:52;99524.13;;;11.44;81.77
74542;BME280;63015;45.378;20.360;2023-04-01T15:11:14;99534.03;;;11.74;81.32
74542;BME280;63015;45.378;20.360;2023-04-01T15:18:23;99529.53;;;11.80;81.19
74542;BME280;63015;45.378;20.360;2023-04-01T15:29:43;99530.00;;;12.01;80.02
74542;BME280;63015;45.378;20.360;2023-04-01T15:38:43;99538.81;;;11.97;80.07
74542;BME280;63015;45.378;20.360;2023-04-01T15:40:49;99537.94;;;11.95;79.90
74542;BME280;63015;45.378;20.360;2023-04-01T15:45:35;99540.00;;;11.79;79.93
74542;BME280;63015;45.378;20.360;2023-04-01T15:47:42;99545.22;;;11.79;79.74
74542;BME280;63015;45.378;20.360;2023-04-01T16:13:24;99565.16;;;11.36;79.59
74542;BME280;63015;45.378;20.360;2023-04-01T16:18:19;99576.28;;;11.46;79.22
74542;BME280;63015;45.378;20.360;2023-04-01T16:23:24;99587.00;;;11.30;79.64
74542;BME280;63015;45.378;20.360;2023-04-01T16:27:49;99584.28;;;11.37;79.28
74542;BME280;63015;45.378;20.360;2023-04-01T16:29:58;99592.13;;;11.35;79.51
74542;BME280;63015;45.378;20.360;2023-04-01T16:32:21;99598.94;;;11.44;79.03
74542;BME280;63015;45.378;20.360;2023-04-01T16:38:38;99598.44;;;11.23;79.98
74542;BME280;63015;45.378;20.360;2023-04-01T16:41:17;99604.56;;;11.21;79.95
74542;BME280;63015;45.378;20.360;2023-04-01T16:43:45;99610.47;;;11.30;79.30
74542;BME280;63015;45.378;20.360;2023-04-01T16:48:13;99613.25;;;11.19;80.04
74542;BME280;63015;45.378;20.360;2023-04-01T16:50:20;99603.66;;;11.22;80.02
74542;BME280;63015;45.378;20.360;2023-04-01T16:54:54;99616.03;;;11.10;80.14
74542;BME280;63015;45.378;20.360;2023-04-01T17:00:01;99616.81;;;11.14;80.01
74542;BME280;63015;45.378;20.360;2023-04-01T17:07:06;99622.88;;;11.16;79.70
74542;BME280;63015;45.378;20.360;2023-04-01T17:09:29;99625.50;;;11.14;79.81
74542;BME280;63015;45.378;20.360;2023-04-01T17:11:40;99625.53;;;11.11;79.86
74542;BME280;63015;45.378;20.360;2023-04-01T17:20:41;99640.47;;;11.03;80.14
74542;BME280;63015;45.378;20.360;2023-04-01T17:27:52;99643.81;;;11.10;79.49
74542;BME280;63015;45.378;20.360;2023-04-01T17:30:21;99643.94;;;11.02;80.01
74542;BME280;63015;45.378;20.360;2023-04-01T17:34:58;99645.63;;;11.08;79.64
74542;BME280;63015;45.378;20.360;2023-04-01T17:37:20;99645.50;;;11.15;79.14
74542;BME280;63015;45.378;20.360;2023-04-01T17:41:53;99649.13;;;11.05;79.30
74542;BME280;63015;45.378;20.360;2023-04-01T17:46:10;99656.94;;;11.05;79.26
74542;BME280;63015;45.378;20.360;2023-04-01T17:57:50;99671.06;;;10.90;78.70
74542;BME280;63015;45.378;20.360;2023-04-01T18:02:33;99675.47;;;10.85;78.70
74542;BME280;63015;45.378;20.360;2023-04-01T18:11:58;99677.34;;;10.77;78.49
74542;BME280;63015;45.378;20.360;2023-04-01T18:25:43;99683.50;;;10.69;78.56
74542;BME280;63015;45.378;20.360;2023-04-01T18:27:53;99688.75;;;10.68;78.58
74542;BME280;63015;45.378;20.360;2023-04-01T18:34:50;99693.09;;;10.66;78.25
74542;BME280;63015;45.378;20.360;2023-04-01T18:37:14;99694.97;;;10.58;78.54
74542;BME280;63015;45.378;20.360;2023-04-01T18:39:21;99688.00;;;10.58;78.43
74542;BME280;63015;45.378;20.360;2023-04-01T18:41:34;99692.41;;;10.51;78.31
74542;BME280;63015;45.378;20.360;2023-04-01T18:45:57;99689.94;;;10.41;78.83
74542;BME280;63015;45.378;20.360;2023-04-01T18:48:33;99691.63;;;10.46;78.42
74542;BME280;63015;45.378;20.360;2023-04-01T18:50:51;99690.00;;;10.36;78.44
74542;BME280;63015;45.378;20.360;2023-04-01T18:52:59;99693.44;;;10.40;78.17
74542;BME280;63015;45.378;20.360;2023-04-01T18:55:32;99700.41;;;10.33;77.49
74542;BME280;63015;45.378;20.360;2023-04-01T18:57:50;99701.31;;;10.30;77.17
74542;BME280;63015;45.378;20.360;2023-04-01T18:59:56;99699.69;;;10.22;76.58
74542;BME280;63015;45.378;20.360;2023-04-01T19:04:31;99701.47;;;10.16;75.52
74542;BME280;63015;45.378;20.360;2023-04-01T19:06:52;99706.78;;;10.06;75.70
74542;BME280;63015;45.378;20.360;2023-04-01T19:08:55;99708.47;;;10.10;75.78
74542;BME280;63015;45.378;20.360;2023-04-01T19:15:39;99701.78;;;9.85;74.90